sensor_id;sensor_type;location;lat;lon;timestamp;temperature;humidity
5775;DHT22;2913;51.120;6.772;2023-08-07T00:01:08;13.80;99.90
5775;DHT22;2913;51.120;6.772;2023-08-07T00:03:34;13.80;99.90
5775;DHT22;2913;51.120;6.772;2023-08-07T00:06:01;13.80;99.90
5775;DHT22;2913;51.120;6.772;2023-08-07T00:08:26;13.80;99.90
5775;DHT22;2913;51.120;6.772;2023-08-07T00:10:52;13.70;99.90
5775;DHT22;2913;51.120;6.772;2023-08-07T00:13:17;13.70;99.90
5775;DHT22;2913;51.120;6.772;2023-08-07T00:15:45;13.80;99.90
5775;DHT22;2913;51.120;6.772;2023-08-07T00:18:18;13.70;99.90
5775;DHT22;2913;51.120;6.772;2023-08-07T00:20:48;13.80;99.90
5775;DHT22;2913;51.120;6.772;2023-08-07T00:23:14;13.70;99.90
5775;DHT22;2913;51.120;6.772;2023-08-07T00:25:42;13.70;99.90
5775;DHT22;2913;51.120;6.772;2023-08-07T00:28:07;13.70;99.90
5775;DHT22;2913;51.120;6.772;2023-08-07T00:30:33;13.70;99.90
5775;DHT22;2913;51.120;6.772;2023-08-07T00:32:58;13.70;99.90
5775;DHT22;2913;51.120;6.772;2023-08-07T00:35:24;13.70;99.90
5775;DHT22;2913;51.120;6.772;2023-08-07T00:37:52;13.70;99.90
5775;DHT22;2913;51.120;6.772;2023-08-07T00:40:17;13.70;99.90
5775;DHT22;2913;51.120;6.772;2023-08-07T00:42:43;13.60;99.90
5775;DHT22;2913;51.120;6.772;2023-08-07T00:45:11;13.60;99.90
5775;DHT22;2913;51.120;6.772;2023-08-07T00:47:37;13.70;99.90
5775;DHT22;2913;51.120;6.772;2023-08-07T00:50:08;13.60;99.90
5775;DHT22;2913;51.120;6.772;2023-08-07T00:52:36;13.70;99.90
5775;DHT22;2913;51.120;6.772;2023-08-07T00:55:02;13.60;99.90
5775;DHT22;2913;51.120;6.772;2023-08-07T00:57:29;13.60;99.90
5775;DHT22;2913;51.120;6.772;2023-08-07T00:59:55;13.60;99.90
5775;DHT22;2913;51.120;6.772;2023-08-07T01:02:21;13.60;99.90
5775;DHT22;2913;51.120;6.772;2023-08-07T01:04:47;13.50;99.90
5775;DHT22;2913;51.120;6.772;2023-08-07T01:07:12;13.60;99.90
5775;DHT22;2913;51.120;6.772;2023-08-07T01:09:40;13.50;99.90
5775;DHT22;2913;51.120;6.772;2023-08-07T01:17:31;13.60;99.90
5775;DHT22;2913;51.120;6.772;2023-08-07T01:19:59;13.50;99.90
5775;DHT22;2913;51.120;6.772;2023-08-07T01:22:25;13.50;99.90
5775;DHT22;2913;51.120;6.772;2023-08-07T01:24:54;13.40;99.90
5775;DHT22;2913;51.120;6.772;2023-08-07T01:33:34;13.40;99.90
5775;DHT22;2913;51.120;6.772;2023-08-07T01:35:39;13.40;99.90
5775;DHT22;2913;51.120;6.772;2023-08-07T01:38:09;13.40;99.90
5775;DHT22;2913;51.120;6.772;2023-08-07T01:40:37;13.40;99.90
5775;DHT22;2913;51.120;6.772;2023-08-07T01:43:09;13.30;99.90
5775;DHT22;2913;51.120;6.772;2023-08-07T01:50:27;13.30;99.90
5775;DHT22;2913;51.120;6.772;2023-08-07T01:52:53;13.30;99.90
5775;DHT22;2913;51.120;6.772;2023-08-07T01:55:19;13.40;99.90
5775;DHT22;2913;51.120;6.772;2023-08-07T01:57:45;13.30;99.90
5775;DHT22;2913;51.120;6.772;2023-08-07T02:00:11;13.40;99.90
5775;DHT22;2913;51.120;6.772;2023-08-07T02:02:38;13.30;99.90
5775;DHT22;2913;51.120;6.772;2023-08-07T02:05:04;13.40;99.90
5775;DHT22;2913;51.120;6.772;2023-08-07T02:07:32;13.40;99.90
5775;DHT22;2913;51.120;6.772;2023-08-07T02:09:58;13.40;99.90
5775;DHT22;2913;51.120;6.772;2023-08-07T02:12:24;13.40;99.90
5775;DHT22;2913;51.120;6.772;2023-08-07T02:14:55;13.30;99.90
5775;DHT22;2913;51.120;6.772;2023-08-07T02:17:24;13.30;99.90
5775;DHT22;2913;51.120;6.772;2023-08-07T02:19:49;13.30;99.90
5775;DHT22;2913;51.120;6.772;2023-08-07T02:22:17;13.30;99.90
5775;DHT22;2913;51.120;6.772;2023-08-07T02:24:45;13.40;99.90
5775;DHT22;2913;51.120;6.772;2023-08-07T02:27:11;13.30;99.90
5775;DHT22;2913;51.120;6.772;2023-08-07T02:29:39;13.30;99.90
5775;DHT22;2913;51.120;6.772;2023-08-07T02:32:04;13.30;99.90
5775;DHT22;2913;51.120;6.772;2023-08-07T02:34:33;13.40;99.90
5775;DHT22;2913;51.120;6.772;2023-08-07T02:36:59;13.30;99.90
5775;DHT22;2913;51.120;6.772;2023-08-07T02:39:27;13.30;99.90
5775;DHT22;2913;51.120;6.772;2023-08-07T02:41:53;13.20;99.90
5775;DHT22;2913;51.120;6.772;2023-08-07T02:44:19;13.30;99.90
5775;DHT22;2913;51.120;6.772;2023-08-07T02:46:45;13.30;99.90
5775;DHT22;2913;51.120;6.772;2023-08-07T02:49:11;13.30;99.90
5775;DHT22;2913;51.120;6.772;2023-08-07T02:51:39;13.30;99.90
5775;DHT22;2913;51.120;6.772;2023-08-07T02:54:04;13.30;99.90
5775;DHT22;2913;51.120;6.772;2023-08-07T02:56:30;13.30;99.90
5775;DHT22;2913;51.120;6.772;2023-08-07T02:58:58;13.30;99.90
5775;DHT22;2913;51.120;6.772;2023-08-07T03:01:24;13.20;99.90
5775;DHT22;2913;51.120;6.772;2023-08-07T03:03:50;13.20;99.90
5775;DHT22;2913;51.120;6.772;2023-08-07T03:06:15;13.20;99.90
5775;DHT22;2913;51.120;6.772;2023-08-07T03:08:41;13.30;99.90
5775;DHT22;2913;51.120;6.772;2023-08-07T03:11:08;13.20;99.90
5775;DHT22;2913;51.120;6.772;2023-08-07T03:13:36;13.20;99.90
5775;DHT22;2913;51.120;6.772;2023-08-07T03:16:07;13.20;99.90
5775;DHT22;2913;51.120;6.772;2023-08-07T03:18:34;13.20;99.90
5775;DHT22;2913;51.120;6.772;2023-08-07T03:21:00;13.20;99.90
5775;DHT22;2913;51.120;6.772;2023-08-07T03:23:30;13.30;99.90
5775;DHT22;2913;51.120;6.772;2023-08-07T03:26:06;13.30;99.90
5775;DHT22;2913;51.120;6.772;2023-08-07T03:28:33;13.30;99.90
5775;DHT22;2913;51.120;6.772;2023-08-07T03:30:59;13.20;99.90
5775;DHT22;2913;51.120;6.772;2023-08-07T03:33:27;13.20;99.90
5775;DHT22;2913;51.120;6.772;2023-08-07T03:35:52;13.30;99.90
5775;DHT22;2913;51.120;6.772;2023-08-07T03:38:21;13.20;99.90
5775;DHT22;2913;51.120;6.772;2023-08-07T03:40:49;13.20;99.90
5775;DHT22;2913;51.120;6.772;2023-08-07T03:43:15;13.20;99.90
5775;DHT22;2913;51.120;6.772;2023-08-07T03:45:40;13.20;99.90
5775;DHT22;2913;51.120;6.772;2023-08-07T03:48:08;13.20;99.90
5775;DHT22;2913;51.120;6.772;2023-08-07T03:50:38;13.20;99.90
5775;DHT22;2913;51.120;6.772;2023-08-07T03:53:05;13.20;99.90
5775;DHT22;2913;51.120;6.772;2023-08-07T03:55:32;13.20;99.90
5775;DHT22;2913;51.120;6.772;2023-08-07T03:57:58;13.20;99.90
5775;DHT22;2913;51.120;6.772;2023-08-07T04:00:23;13.20;99.90
5775;DHT22;2913;51.120;6.772;2023-08-07T04:02:49;13.20;99.90
5775;DHT22;2913;51.120;6.772;2023-08-07T04:05:17;13.20;99.90
5775;DHT22;2913;51.120;6.772;2023-08-07T04:07:42;13.20;99.90
5775;DHT22;2913;51.120;6.772;2023-08-07T04:10:08;13.30;99.90
5775;DHT22;2913;51.120;6.772;2023-08-07T04:12:34;13.30;99.90
5775;DHT22;2913;51.120;6.772;2023-08-07T04:15:01;13.20;99.90
5775;DHT22;2913;51.120;6.772;2023-08-07T04:17:27;13.30;99.90
5775;DHT22;2913;51.120;6.772;2023-08-07T04:19:53;13.20;99.90
5775;DHT22;2913;51.120;6.772;2023-08-07T04:22:19;13.30;99.90
5775;DHT22;2913;51.120;6.772;2023-08-07T04:24:47;13.30;99.90
5775;DHT22;2913;51.120;6.772;2023-08-07T04:27:14;13.20;99.90
5775;DHT22;2913;51.120;6.772;2023-08-07T04:29:40;13.20;99.90
5775;DHT22;2913;51.120;6.772;2023-08-07T04:32:08;13.20;99.90
5775;DHT22;2913;51.120;6.772;2023-08-07T04:34:34;13.20;99.90
5775;DHT22;2913;51.120;6.772;2023-08-07T04:37:00;13.30;99.90
5775;DHT22;2913;51.120;6.772;2023-08-07T04:39:28;13.30;99.90
5775;DHT22;2913;51.120;6.772;2023-08-07T04:41:56;13.20;99.90
5775;DHT22;2913;51.120;6.772;2023-08-07T04:44:21;13.20;99.90
5775;DHT22;2913;51.120;6.772;2023-08-07T04:46:49;13.20;99.90
5775;DHT22;2913;51.120;6.772;2023-08-07T04:49:15;13.20;99.90
5775;DHT22;2913;51.120;6.772;2023-08-07T04:51:41;13.30;99.90
5775;DHT22;2913;51.120;6.772;2023-08-07T04:54:11;13.30;99.90
5775;DHT22;2913;51.120;6.772;2023-08-07T04:56:37;13.30;99.90
5775;DHT22;2913;51.120;6.772;2023-08-07T04:59:07;13.30;99.90
5775;DHT22;2913;51.120;6.772;2023-08-07T05:01:33;13.20;99.90
5775;DHT22;2913;51.120;6.772;2023-08-07T05:04:01;13.20;99.90
5775;DHT22;2913;51.120;6.772;2023-08-07T05:06:27;13.20;99.90
5775;DHT22;2913;51.120;6.772;2023-08-07T05:08:58;13.20;99.90
5775;DHT22;2913;51.120;6.772;2023-08-07T05:11:23;13.20;99.90
5775;DHT22;2913;51.120;6.772;2023-08-07T05:13:51;13.20;99.90
5775;DHT22;2913;51.120;6.772;2023-08-07T05:16:16;13.30;99.90
5775;DHT22;2913;51.120;6.772;2023-08-07T05:18:44;13.30;99.90
5775;DHT22;2913;51.120;6.772;2023-08-07T05:21:12;13.30;99.90
5775;DHT22;2913;51.120;6.772;2023-08-07T05:23:42;13.30;99.90
5775;DHT22;2913;51.120;6.772;2023-08-07T05:26:08;13.30;99.90
5775;DHT22;2913;51.120;6.772;2023-08-07T05:28:36;13.30;99.90
5775;DHT22;2913;51.120;6.772;2023-08-07T05:31:01;13.40;99.90
5775;DHT22;2913;51.120;6.772;2023-08-07T05:33:29;13.40;99.90
5775;DHT22;2913;51.120;6.772;2023-08-07T05:35:55;13.40;99.90
5775;DHT22;2913;51.120;6.772;2023-08-07T05:38:20;13.40;99.90
5775;DHT22;2913;51.120;6.772;2023-08-07T05:40:46;13.40;99.90
5775;DHT22;2913;51.120;6.772;2023-08-07T05:43:12;13.40;99.90
5775;DHT22;2913;51.120;6.772;2023-08-07T05:45:38;13.40;99.90
5775;DHT22;2913;51.120;6.772;2023-08-07T05:48:08;13.30;99.90
5775;DHT22;2913;51.120;6.772;2023-08-07T05:50:37;13.40;99.90
5775;DHT22;2913;51.120;6.772;2023-08-07T05:53:02;13.40;99.90
5775;DHT22;2913;51.120;6.772;2023-08-07T05:55:30;13.40;99.90
5775;DHT22;2913;51.120;6.772;2023-08-07T05:57:58;13.50;99.90
5775;DHT22;2913;51.120;6.772;2023-08-07T06:00:26;13.40;99.90
5775;DHT22;2913;51.120;6.772;2023-08-07T06:02:53;13.40;99.90
5775;DHT22;2913;51.120;6.772;2023-08-07T06:05:19;13.40;99.90
5775;DHT22;2913;51.120;6.772;2023-08-07T06:07:48;13.40;99.90
5775;DHT22;2913;51.120;6.772;2023-08-07T06:10:14;13.40;99.90
5775;DHT22;2913;51.120;6.772;2023-08-07T06:12:39;13.40;99.90
5775;DHT22;2913;51.120;6.772;2023-08-07T06:15:07;13.40;99.90
5775;DHT22;2913;51.120;6.772;2023-08-07T06:17:34;13.40;99.90
5775;DHT22;2913;51.120;6.772;2023-08-07T06:20:00;13.40;99.90
5775;DHT22;2913;51.120;6.772;2023-08-07T06:22:30;13.40;99.90
5775;DHT22;2913;51.120;6.772;2023-08-07T06:24:55;13.30;99.90
5775;DHT22;2913;51.120;6.772;2023-08-07T06:27:21;13.30;99.90
5775;DHT22;2913;51.120;6.772;2023-08-07T06:29:46;13.30;99.90
5775;DHT22;2913;51.120;6.772;2023-08-07T06:32:12;13.20;99.90
5775;DHT22;2913;51.120;6.772;2023-08-07T06:34:38;13.30;99.90
5775;DHT22;2913;51.120;6.772;2023-08-07T06:37:05;13.30;99.90
5775;DHT22;2913;51.120;6.772;2023-08-07T06:39:33;13.20;99.90
5775;DHT22;2913;51.120;6.772;2023-08-07T06:41:59;13.20;99.90
5775;DHT22;2913;51.120;6.772;2023-08-07T06:44:29;13.30;99.90
5775;DHT22;2913;51.120;6.772;2023-08-07T06:46:55;13.20;99.90
5775;DHT22;2913;51.120;6.772;2023-08-07T06:49:20;13.20;99.90
5775;DHT22;2913;51.120;6.772;2023-08-07T06:51:46;13.20;99.90
5775;DHT22;2913;51.120;6.772;2023-08-07T06:54:16;13.30;99.90
5775;DHT22;2913;51.120;6.772;2023-08-07T06:56:44;13.30;99.90
5775;DHT22;2913;51.120;6.772;2023-08-07T06:59:12;13.30;99.90
5775;DHT22;2913;51.120;6.772;2023-08-07T07:01:41;13.30;99.90
5775;DHT22;2913;51.120;6.772;2023-08-07T07:04:06;13.30;99.90
5775;DHT22;2913;51.120;6.772;2023-08-07T07:06:33;13.30;99.90
5775;DHT22;2913;51.120;6.772;2023-08-07T07:09:01;13.30;99.90
5775;DHT22;2913;51.120;6.772;2023-08-07T07:11:26;13.30;99.90
5775;DHT22;2913;51.120;6.772;2023-08-07T07:13:52;13.30;99.90
5775;DHT22;2913;51.120;6.772;2023-08-07T07:16:21;13.30;99.90
5775;DHT22;2913;51.120;6.772;2023-08-07T07:18:49;13.30;99.90
5775;DHT22;2913;51.120;6.772;2023-08-07T07:21:14;13.40;99.90
5775;DHT22;2913;51.120;6.772;2023-08-07T07:23:45;13.30;99.90
5775;DHT22;2913;51.120;6.772;2023-08-07T07:26:10;13.30;99.90
5775;DHT22;2913;51.120;6.772;2023-08-07T07:28:38;13.40;99.90
5775;DHT22;2913;51.120;6.772;2023-08-07T07:31:04;13.40;99.90
5775;DHT22;2913;51.120;6.772;2023-08-07T07:33:30;13.40;99.90
5775;DHT22;2913;51.120;6.772;2023-08-07T07:35:56;13.40;99.90
5775;DHT22;2913;51.120;6.772;2023-08-07T07:38:22;13.50;99.90
5775;DHT22;2913;51.120;6.772;2023-08-07T07:40:47;13.50;99.90
5775;DHT22;2913;51.120;6.772;2023-08-07T07:43:15;13.60;99.90
5775;DHT22;2913;51.120;6.772;2023-08-07T07:45:41;13.60;99.90
5775;DHT22;2913;51.120;6.772;2023-08-07T07:48:06;13.60;99.90
5775;DHT22;2913;51.120;6.772;2023-08-07T07:50:38;13.70;99.90
5775;DHT22;2913;51.120;6.772;2023-08-07T07:53:03;13.80;99.90
5775;DHT22;2913;51.120;6.772;2023-08-07T07:55:31;13.70;99.90
5775;DHT22;2913;51.120;6.772;2023-08-07T07:57:57;13.70;99.90
5775;DHT22;2913;51.120;6.772;2023-08-07T08:00:26;13.70;99.90
5775;DHT22;2913;51.120;6.772;2023-08-07T08:02:54;13.70;99.90
5775;DHT22;2913;51.120;6.772;2023-08-07T08:05:20;13.70;99.90
5775;DHT22;2913;51.120;6.772;2023-08-07T08:07:51;13.70;99.90
5775;DHT22;2913;51.120;6.772;2023-08-07T08:10:19;13.80;99.90
5775;DHT22;2913;51.120;6.772;2023-08-07T08:12:44;13.80;99.90
5775;DHT22;2913;51.120;6.772;2023-08-07T08:15:10;13.90;99.90
5775;DHT22;2913;51.120;6.772;2023-08-07T08:17:35;14.00;99.90
5775;DHT22;2913;51.120;6.772;2023-08-07T08:20:01;14.10;99.90
5775;DHT22;2913;51.120;6.772;2023-08-07T08:22:27;14.20;99.90
5775;DHT22;2913;51.120;6.772;2023-08-07T08:24:52;14.10;99.90
5775;DHT22;2913;51.120;6.772;2023-08-07T08:27:18;14.20;99.90
5775;DHT22;2913;51.120;6.772;2023-08-07T08:29:46;14.20;99.90
5775;DHT22;2913;51.120;6.772;2023-08-07T08:32:12;14.20;99.90
5775;DHT22;2913;51.120;6.772;2023-08-07T08:34:37;14.30;99.90
5775;DHT22;2913;51.120;6.772;2023-08-07T08:37:03;14.50;99.90
5775;DHT22;2913;51.120;6.772;2023-08-07T08:39:33;14.50;99.90
5775;DHT22;2913;51.120;6.772;2023-08-07T08:41:59;14.50;99.90
5775;DHT22;2913;51.120;6.772;2023-08-07T08:44:26;14.60;99.90
5775;DHT22;2913;51.120;6.772;2023-08-07T08:46:59;14.60;99.90
5775;DHT22;2913;51.120;6.772;2023-08-07T08:49:30;14.60;99.90
5775;DHT22;2913;51.120;6.772;2023-08-07T08:51:58;14.60;99.90
5775;DHT22;2913;51.120;6.772;2023-08-07T08:54:25;14.60;99.90
5775;DHT22;2913;51.120;6.772;2023-08-07T08:56:52;14.60;99.90
5775;DHT22;2913;51.120;6.772;2023-08-07T08:59:22;14.70;99.90
5775;DHT22;2913;51.120;6.772;2023-08-07T09:01:54;14.70;99.90
5775;DHT22;2913;51.120;6.772;2023-08-07T09:04:24;14.70;99.90
5775;DHT22;2913;51.120;6.772;2023-08-07T09:06:52;14.70;99.90
5775;DHT22;2913;51.120;6.772;2023-08-07T09:09:20;14.70;99.90
5775;DHT22;2913;51.120;6.772;2023-08-07T09:11:49;14.60;99.90
5775;DHT22;2913;51.120;6.772;2023-08-07T09:14:20;14.60;99.90
5775;DHT22;2913;51.120;6.772;2023-08-07T09:16:48;14.60;99.90
5775;DHT22;2913;51.120;6.772;2023-08-07T09:19:15;14.90;99.90
5775;DHT22;2913;51.120;6.772;2023-08-07T09:21:43;15.00;99.90
5775;DHT22;2913;51.120;6.772;2023-08-07T09:24:09;15.20;99.90
5775;DHT22;2913;51.120;6.772;2023-08-07T09:26:39;15.30;99.90
5775;DHT22;2913;51.120;6.772;2023-08-07T09:29:09;15.60;99.90
5775;DHT22;2913;51.120;6.772;2023-08-07T09:31:36;15.70;99.90
5775;DHT22;2913;51.120;6.772;2023-08-07T09:34:03;15.80;99.90
5775;DHT22;2913;51.120;6.772;2023-08-07T09:36:31;15.90;99.90
5775;DHT22;2913;51.120;6.772;2023-08-07T09:39:00;15.90;99.90
5775;DHT22;2913;51.120;6.772;2023-08-07T09:41:31;15.90;99.90
5775;DHT22;2913;51.120;6.772;2023-08-07T09:44:08;15.90;99.90
5775;DHT22;2913;51.120;6.772;2023-08-07T09:46:44;16.00;99.90
5775;DHT22;2913;51.120;6.772;2023-08-07T09:49:10;16.20;99.90
5775;DHT22;2913;51.120;6.772;2023-08-07T09:51:45;16.30;99.90
5775;DHT22;2913;51.120;6.772;2023-08-07T09:54:11;16.40;99.90
5775;DHT22;2913;51.120;6.772;2023-08-07T09:56:43;16.50;99.90
5775;DHT22;2913;51.120;6.772;2023-08-07T09:59:14;16.70;99.90
5775;DHT22;2913;51.120;6.772;2023-08-07T10:01:40;16.80;99.90
5775;DHT22;2913;51.120;6.772;2023-08-07T10:04:08;16.90;99.90
5775;DHT22;2913;51.120;6.772;2023-08-07T10:06:33;17.20;99.90
5775;DHT22;2913;51.120;6.772;2023-08-07T10:09:01;17.50;99.90
5775;DHT22;2913;51.120;6.772;2023-08-07T10:11:27;17.60;99.90
5775;DHT22;2913;51.120;6.772;2023-08-07T10:13:57;17.70;99.90
5775;DHT22;2913;51.120;6.772;2023-08-07T10:16:25;17.70;99.90
5775;DHT22;2913;51.120;6.772;2023-08-07T10:18:53;18.00;99.90
5775;DHT22;2913;51.120;6.772;2023-08-07T10:21:19;18.20;99.90
5775;DHT22;2913;51.120;6.772;2023-08-07T10:23:46;18.20;99.90
5775;DHT22;2913;51.120;6.772;2023-08-07T10:26:13;18.30;99.90
5775;DHT22;2913;51.120;6.772;2023-08-07T10:28:40;18.50;99.90
5775;DHT22;2913;51.120;6.772;2023-08-07T10:31:07;18.60;99.90
5775;DHT22;2913;51.120;6.772;2023-08-07T10:33:36;18.60;99.90
5775;DHT22;2913;51.120;6.772;2023-08-07T10:36:08;18.70;99.90
5775;DHT22;2913;51.120;6.772;2023-08-07T10:38:35;18.70;99.90
5775;DHT22;2913;51.120;6.772;2023-08-07T10:41:09;18.70;99.90
5775;DHT22;2913;51.120;6.772;2023-08-07T10:43:41;18.60;99.90
5775;DHT22;2913;51.120;6.772;2023-08-07T10:46:20;18.70;99.90
5775;DHT22;2913;51.120;6.772;2023-08-07T10:48:55;18.90;99.90
5775;DHT22;2913;51.120;6.772;2023-08-07T10:51:28;18.80;99.90
5775;DHT22;2913;51.120;6.772;2023-08-07T10:53:54;18.90;99.90
5775;DHT22;2913;51.120;6.772;2023-08-07T10:56:33;18.90;99.90
5775;DHT22;2913;51.120;6.772;2023-08-07T10:59:07;19.10;99.90
5775;DHT22;2913;51.120;6.772;2023-08-07T11:04:05;19.00;99.90
5775;DHT22;2913;51.120;6.772;2023-08-07T11:06:33;19.30;99.90
5775;DHT22;2913;51.120;6.772;2023-08-07T11:09:00;19.50;99.90
5775;DHT22;2913;51.120;6.772;2023-08-07T11:11:28;19.80;99.90
5775;DHT22;2913;51.120;6.772;2023-08-07T11:13:54;19.70;99.90
5775;DHT22;2913;51.120;6.772;2023-08-07T11:16:20;19.90;99.90
5775;DHT22;2913;51.120;6.772;2023-08-07T11:18:47;19.90;99.90
5775;DHT22;2913;51.120;6.772;2023-08-07T11:21:15;20.00;99.90
5775;DHT22;2913;51.120;6.772;2023-08-07T11:23:43;20.00;99.90
5775;DHT22;2913;51.120;6.772;2023-08-07T11:26:09;20.00;98.80
5775;DHT22;2913;51.120;6.772;2023-08-07T11:28:35;19.90;97.70
5775;DHT22;2913;51.120;6.772;2023-08-07T11:31:03;20.10;99.80
5775;DHT22;2913;51.120;6.772;2023-08-07T11:33:29;20.20;96.50
5775;DHT22;2913;51.120;6.772;2023-08-07T11:35:59;20.20;97.00
5775;DHT22;2913;51.120;6.772;2023-08-07T11:38:37;20.20;99.10
5775;DHT22;2913;51.120;6.772;2023-08-07T11:41:04;20.30;97.40
5775;DHT22;2913;51.120;6.772;2023-08-07T11:43:31;20.40;96.70
5775;DHT22;2913;51.120;6.772;2023-08-07T11:45:58;20.40;99.10
5775;DHT22;2913;51.120;6.772;2023-08-07T11:48:28;20.40;96.70
5775;DHT22;2913;51.120;6.772;2023-08-07T11:50:54;20.30;93.30
5775;DHT22;2913;51.120;6.772;2023-08-07T11:53:21;20.40;94.00
5775;DHT22;2913;51.120;6.772;2023-08-07T11:55:56;20.60;93.30
5775;DHT22;2913;51.120;6.772;2023-08-07T11:58:24;20.60;93.30
5775;DHT22;2913;51.120;6.772;2023-08-07T12:00:50;20.80;93.60
5775;DHT22;2913;51.120;6.772;2023-08-07T12:03:30;20.80;92.40
5775;DHT22;2913;51.120;6.772;2023-08-07T12:06:02;20.80;91.50
5775;DHT22;2913;51.120;6.772;2023-08-07T12:08:32;20.80;90.50
5775;DHT22;2913;51.120;6.772;2023-08-07T12:10:58;21.00;91.90
5775;DHT22;2913;51.120;6.772;2023-08-07T12:13:25;20.90;90.70
5775;DHT22;2913;51.120;6.772;2023-08-07T12:15:56;20.80;86.90
5775;DHT22;2913;51.120;6.772;2023-08-07T12:18:23;20.80;87.30
5775;DHT22;2913;51.120;6.772;2023-08-07T12:20:52;20.70;88.10
5775;DHT22;2913;51.120;6.772;2023-08-07T12:23:21;20.60;84.40
5775;DHT22;2913;51.120;6.772;2023-08-07T12:25:47;20.80;83.60
5775;DHT22;2913;51.120;6.772;2023-08-07T12:28:14;21.10;82.50
5775;DHT22;2913;51.120;6.772;2023-08-07T12:30:42;21.20;83.20
5775;DHT22;2913;51.120;6.772;2023-08-07T12:33:09;21.30;82.50
5775;DHT22;2913;51.120;6.772;2023-08-07T12:35:37;21.50;81.50
5775;DHT22;2913;51.120;6.772;2023-08-07T12:38:03;21.70;81.30
5775;DHT22;2913;51.120;6.772;2023-08-07T12:40:31;21.70;79.80
5775;DHT22;2913;51.120;6.772;2023-08-07T12:42:58;21.60;77.40
5775;DHT22;2913;51.120;6.772;2023-08-07T12:45:24;21.60;74.90
5775;DHT22;2913;51.120;6.772;2023-08-07T12:47:49;21.60;75.50
5775;DHT22;2913;51.120;6.772;2023-08-07T12:50:15;21.70;74.90
5775;DHT22;2913;51.120;6.772;2023-08-07T12:52:41;21.70;74.90
5775;DHT22;2913;51.120;6.772;2023-08-07T12:55:07;21.80;76.30
5775;DHT22;2913;51.120;6.772;2023-08-07T12:57:33;21.90;76.70
5775;DHT22;2913;51.120;6.772;2023-08-07T12:59:58;22.00;76.20
5775;DHT22;2913;51.120;6.772;2023-08-07T13:02:24;22.00;74.90
5775;DHT22;2913;51.120;6.772;2023-08-07T13:04:50;22.00;73.50
5775;DHT22;2913;51.120;6.772;2023-08-07T13:07:17;21.90;74.10
5775;DHT22;2913;51.120;6.772;2023-08-07T13:09:42;22.00;74.50
5775;DHT22;2913;51.120;6.772;2023-08-07T13:12:10;21.90;73.30
5775;DHT22;2913;51.120;6.772;2023-08-07T13:14:38;22.00;72.80
5775;DHT22;2913;51.120;6.772;2023-08-07T13:17:04;22.00;73.80
5775;DHT22;2913;51.120;6.772;2023-08-07T13:19:29;22.00;73.50
5775;DHT22;2913;51.120;6.772;2023-08-07T13:22:00;22.10;74.80
5775;DHT22;2913;51.120;6.772;2023-08-07T13:24:25;22.10;74.90
5775;DHT22;2913;51.120;6.772;2023-08-07T13:26:51;22.10;75.00
5775;DHT22;2913;51.120;6.772;2023-08-07T13:29:19;22.30;75.40
5775;DHT22;2913;51.120;6.772;2023-08-07T13:31:45;22.30;73.20
5775;DHT22;2913;51.120;6.772;2023-08-07T13:34:18;22.00;73.30
5775;DHT22;2913;51.120;6.772;2023-08-07T13:36:49;22.10;73.60
5775;DHT22;2913;51.120;6.772;2023-08-07T13:39:15;22.10;72.90
5775;DHT22;2913;51.120;6.772;2023-08-07T13:41:41;22.00;73.80
5775;DHT22;2913;51.120;6.772;2023-08-07T13:44:06;22.00;75.10
5775;DHT22;2913;51.120;6.772;2023-08-07T13:46:32;21.70;74.10
5775;DHT22;2913;51.120;6.772;2023-08-07T13:49:00;21.50;75.50
5775;DHT22;2913;51.120;6.772;2023-08-07T13:51:26;21.70;77.60
5775;DHT22;2913;51.120;6.772;2023-08-07T13:53:56;21.70;77.30
5775;DHT22;2913;51.120;6.772;2023-08-07T13:56:24;21.50;74.80
5775;DHT22;2913;51.120;6.772;2023-08-07T13:58:52;21.40;76.20
5775;DHT22;2913;51.120;6.772;2023-08-07T14:01:19;21.40;77.70
5775;DHT22;2913;51.120;6.772;2023-08-07T14:03:47;21.40;76.50
5775;DHT22;2913;51.120;6.772;2023-08-07T14:06:13;21.30;77.10
5775;DHT22;2913;51.120;6.772;2023-08-07T14:08:41;21.40;79.50
5775;DHT22;2913;51.120;6.772;2023-08-07T14:11:09;21.60;80.20
5775;DHT22;2913;51.120;6.772;2023-08-07T14:13:37;21.60;79.80
5775;DHT22;2913;51.120;6.772;2023-08-07T14:16:03;21.70;81.20
5775;DHT22;2913;51.120;6.772;2023-08-07T14:18:28;21.70;81.80
5775;DHT22;2913;51.120;6.772;2023-08-07T14:20:54;21.60;81.90
5775;DHT22;2913;51.120;6.772;2023-08-07T14:23:22;21.60;82.60
5775;DHT22;2913;51.120;6.772;2023-08-07T14:25:47;21.70;83.20
5775;DHT22;2913;51.120;6.772;2023-08-07T14:28:16;21.70;83.20
5775;DHT22;2913;51.120;6.772;2023-08-07T14:30:42;21.80;83.30
5775;DHT22;2913;51.120;6.772;2023-08-07T14:33:10;21.80;83.20
5775;DHT22;2913;51.120;6.772;2023-08-07T14:35:35;21.80;83.30
5775;DHT22;2913;51.120;6.772;2023-08-07T14:38:01;22.00;82.30
5775;DHT22;2913;51.120;6.772;2023-08-07T14:40:32;21.90;82.10
5775;DHT22;2913;51.120;6.772;2023-08-07T14:42:57;21.80;81.00
5775;DHT22;2913;51.120;6.772;2023-08-07T14:45:23;21.70;82.50
5775;DHT22;2913;51.120;6.772;2023-08-07T14:47:50;21.60;82.80
5775;DHT22;2913;51.120;6.772;2023-08-07T14:50:16;21.40;82.10
5775;DHT22;2913;51.120;6.772;2023-08-07T14:52:42;21.30;83.20
5775;DHT22;2913;51.120;6.772;2023-08-07T14:55:08;21.20;84.90
5775;DHT22;2913;51.120;6.772;2023-08-07T14:57:34;21.10;86.50
5775;DHT22;2913;51.120;6.772;2023-08-07T15:00:00;21.20;87.90
5775;DHT22;2913;51.120;6.772;2023-08-07T15:02:28;21.20;88.20
5775;DHT22;2913;51.120;6.772;2023-08-07T15:04:55;21.10;88.60
5775;DHT22;2913;51.120;6.772;2023-08-07T15:07:21;21.00;89.40
5775;DHT22;2913;51.120;6.772;2023-08-07T15:09:46;20.90;89.00
5775;DHT22;2913;51.120;6.772;2023-08-07T15:12:16;20.80;90.10
5775;DHT22;2913;51.120;6.772;2023-08-07T15:14:42;20.70;90.80
5775;DHT22;2913;51.120;6.772;2023-08-07T15:17:07;20.80;91.90
5775;DHT22;2913;51.120;6.772;2023-08-07T15:19:35;20.80;92.10
5775;DHT22;2913;51.120;6.772;2023-08-07T15:22:01;20.80;92.10
5775;DHT22;2913;51.120;6.772;2023-08-07T15:24:26;20.60;91.50
5775;DHT22;2913;51.120;6.772;2023-08-07T15:26:52;20.50;94.50
5775;DHT22;2913;51.120;6.772;2023-08-07T15:29:17;20.50;96.60
5775;DHT22;2913;51.120;6.772;2023-08-07T15:31:43;20.60;95.70
5775;DHT22;2913;51.120;6.772;2023-08-07T15:34:11;20.60;95.30
5775;DHT22;2913;51.120;6.772;2023-08-07T15:36:37;20.70;96.00
5775;DHT22;2913;51.120;6.772;2023-08-07T15:39:02;20.80;95.60
5775;DHT22;2913;51.120;6.772;2023-08-07T15:41:28;20.80;97.00
5775;DHT22;2913;51.120;6.772;2023-08-07T15:43:54;20.90;96.50
5775;DHT22;2913;51.120;6.772;2023-08-07T15:46:19;20.90;95.10
5775;DHT22;2913;51.120;6.772;2023-08-07T15:48:45;21.00;95.70
5775;DHT22;2913;51.120;6.772;2023-08-07T15:51:13;21.10;95.50
5775;DHT22;2913;51.120;6.772;2023-08-07T15:53:39;21.00;94.80
5775;DHT22;2913;51.120;6.772;2023-08-07T15:56:05;21.10;94.90
5775;DHT22;2913;51.120;6.772;2023-08-07T15:58:30;21.10;93.90
5775;DHT22;2913;51.120;6.772;2023-08-07T16:00:56;21.10;94.10
5775;DHT22;2913;51.120;6.772;2023-08-07T16:03:21;21.10;95.50
5775;DHT22;2913;51.120;6.772;2023-08-07T16:05:48;21.10;94.10
5775;DHT22;2913;51.120;6.772;2023-08-07T16:08:14;21.10;93.30
5775;DHT22;2913;51.120;6.772;2023-08-07T16:10:40;21.00;93.40
5775;DHT22;2913;51.120;6.772;2023-08-07T16:13:09;21.10;93.80
5775;DHT22;2913;51.120;6.772;2023-08-07T16:15:37;21.10;92.80
5775;DHT22;2913;51.120;6.772;2023-08-07T16:18:06;21.10;94.50
5775;DHT22;2913;51.120;6.772;2023-08-07T16:20:32;21.20;96.00